createdAt,value
2019-03-10T00:00:44.120Z,73.68
2019-03-10T00:01:44.032Z,73.81
2019-03-10T00:02:44.137Z,74.40
2019-03-10T00:03:44.036Z,73.16
2019-03-10T00:04:44.060Z,73.36
2019-03-10T00:05:43.986Z,73.78
2019-03-10T00:06:44.057Z,73.98
2019-03-10T00:07:43.973Z,74.19
2019-03-10T00:08:44.136Z,74.29
2019-03-10T00:09:43.960Z,73.71
2019-03-10T00:10:43.984Z,73.81
2019-03-10T00:11:43.919Z,73.47
2019-03-10T00:12:44.002Z,74.12
2019-03-10T00:13:43.931Z,75.12
2019-03-10T00:14:44.011Z,74.43
2019-03-10T00:15:43.879Z,74.40
2019-03-10T00:16:43.944Z,74.02
2019-03-10T00:17:43.852Z,74.74
2019-03-10T00:18:43.953Z,73.81
2019-03-10T00:19:43.864Z,74.60
2019-03-10T00:20:43.864Z,74.53
2019-03-10T00:21:43.825Z,74.22
2019-03-10T00:22:43.875Z,75.12
2019-03-10T00:23:43.830Z,74.22
2019-03-10T00:24:44.832Z,74.19
2019-03-10T00:25:43.768Z,74.84
2019-03-10T00:26:43.820Z,74.84
2019-03-10T00:27:43.747Z,74.50
2019-03-10T00:28:43.806Z,75.22
2019-03-10T00:29:43.754Z,74.74
2019-03-10T00:30:43.827Z,75.15
2019-03-10T00:31:43.741Z,74.60
2019-03-10T00:32:43.740Z,74.91
2019-03-10T00:33:43.693Z,74.50
2019-03-10T00:34:43.778Z,74.74
2019-03-10T00:35:43.667Z,74.53
2019-03-10T00:36:43.796Z,74.63
2019-03-10T00:37:43.643Z,74.29
2019-03-10T00:38:43.668Z,74.02
2019-03-10T00:39:43.692Z,74.22
2019-03-10T00:40:43.685Z,73.68
2019-03-10T00:41:43.618Z,73.78
2019-03-10T00:42:43.708Z,74.22
2019-03-10T00:43:43.570Z,74.12
2019-03-10T00:44:43.634Z,73.68
2019-03-10T00:45:43.572Z,74.19
2019-03-10T00:46:45.511Z,73.88
2019-03-10T00:47:43.534Z,73.47
2019-03-10T00:48:43.643Z,74.33
2019-03-10T00:49:43.513Z,73.78
2019-03-10T00:50:43.592Z,74.29
2019-03-10T00:51:43.484Z,74.33
2019-03-10T00:52:43.588Z,74.43
2019-03-10T00:53:43.467Z,74.63
2019-03-10T00:54:43.598Z,75.26
2019-03-10T00:55:43.470Z,75.26
2019-03-10T00:56:43.491Z,75.26
2019-03-10T00:57:43.413Z,75.15
2019-03-10T00:58:43.502Z,74.95
2019-03-10T00:59:43.395Z,75.46
2019-03-10T01:00:43.436Z,74.74
2019-03-10T01:01:43.385Z,74.53
2019-03-10T01:02:43.435Z,73.81
2019-03-10T01:03:43.355Z,74.53
2019-03-10T01:04:43.459Z,74.84
2019-03-10T01:05:43.376Z,75.15
2019-03-10T01:06:43.389Z,74.53
2019-03-10T01:07:43.318Z,74.95
2019-03-10T01:08:43.367Z,74.53
2019-03-10T01:09:43.290Z,74.95
2019-03-10T01:10:43.380Z,74.74
2019-03-10T01:11:43.299Z,74.12
2019-03-10T01:12:43.295Z,74.53
2019-03-10T01:13:43.252Z,74.43
2019-03-10T01:14:43.308Z,74.74
2019-03-10T01:15:43.219Z,74.53
2019-03-10T01:16:43.346Z,74.95
2019-03-10T01:17:43.217Z,74.63
2019-03-10T01:18:43.236Z,74.74
2019-03-10T01:19:43.176Z,74.84
2019-03-10T01:20:43.240Z,74.43
2019-03-10T01:21:43.207Z,74.53
2019-03-10T01:22:43.311Z,74.33
2019-03-10T01:23:43.131Z,74.53
2019-03-10T01:24:43.166Z,74.26
2019-03-10T01:25:43.126Z,74.63
2019-03-10T01:26:43.210Z,74.02
2019-03-10T01:27:43.116Z,74.74
2019-03-10T01:28:43.193Z,74.53
2019-03-10T01:29:43.067Z,74.77
2019-03-10T01:30:43.102Z,74.53
2019-03-10T01:31:43.051Z,74.26
2019-03-10T01:32:43.162Z,74.02
2019-03-10T01:33:43.022Z,74.63
2019-03-10T01:34:43.147Z,74.02
2019-03-10T01:35:43.002Z,74.53
2019-03-10T01:36:43.061Z,74.43
2019-03-10T01:37:43.011Z,73.81
2019-03-10T01:38:43.061Z,73.91
2019-03-10T01:39:42.958Z,74.43
2019-03-10T01:40:43.074Z,74.63
2019-03-10T01:41:42.947Z,74.50
2019-03-10T01:42:43.017Z,73.81
2019-03-10T01:43:42.916Z,74.60
2019-03-10T01:44:43.022Z,74.95
2019-03-10T01:45:42.898Z,74.12
2019-03-10T01:46:42.915Z,74.33
2019-03-10T01:47:42.897Z,74.22
2019-03-10T01:48:42.942Z,74.84
2019-03-10T01:49:42.851Z,74.43
2019-03-10T01:50:42.939Z,74.74
2019-03-10T01:51:42.831Z,74.63
2019-03-10T01:52:42.881Z,75.05
2019-03-10T01:53:42.857Z,74.84
2019-03-10T01:54:42.891Z,75.15
2019-03-10T01:55:42.789Z,74.63
2019-03-10T01:56:42.875Z,74.19
2019-03-10T01:57:42.812Z,74.84
2019-03-10T01:58:42.829Z,74.74
2019-03-10T01:59:42.737Z,74.63
2019-03-10T02:00:42.802Z,74.84
2019-03-10T02:01:42.729Z,74.63
2019-03-10T02:02:42.818Z,75.15
2019-03-10T02:03:42.733Z,75.26
2019-03-10T02:04:42.761Z,74.74
2019-03-10T02:05:42.686Z,74.53
2019-03-10T02:06:42.743Z,75.15
2019-03-10T02:07:42.660Z,74.63
2019-03-10T02:08:42.801Z,74.95
2019-03-10T02:09:42.635Z,74.84
2019-03-10T02:10:42.768Z,74.74
2019-03-10T02:11:42.611Z,75.01
2019-03-10T02:12:42.683Z,75.05
2019-03-10T02:13:42.672Z,74.95
2019-03-10T02:14:42.706Z,74.53
2019-03-10T02:15:42.565Z,75.15
2019-03-10T02:16:42.664Z,75.67
2019-03-10T02:17:42.545Z,75.46
2019-03-10T02:18:42.650Z,74.84
2019-03-10T02:19:42.518Z,75.26
2019-03-10T02:20:42.635Z,74.53
2019-03-10T02:21:42.505Z,75.26
2019-03-10T02:22:42.558Z,75.15
2019-03-10T02:23:42.483Z,75.05
2019-03-10T02:24:42.594Z,75.36
2019-03-10T02:25:42.480Z,74.95
2019-03-10T02:26:42.477Z,74.74
2019-03-10T02:27:42.436Z,75.15
2019-03-10T02:28:42.556Z,75.26
2019-03-10T02:29:42.447Z,75.15
2019-03-10T02:30:42.500Z,75.26
2019-03-10T02:31:42.396Z,75.56
2019-03-10T02:32:42.422Z,75.26
2019-03-10T02:33:42.384Z,75.26
2019-03-10T02:34:42.466Z,75.67
2019-03-10T02:35:42.351Z,75.56
2019-03-10T02:36:42.441Z,75.05
2019-03-10T02:37:42.406Z,75.46
2019-03-10T02:38:42.354Z,76.39
2019-03-10T02:39:42.333Z,77.22
2019-03-10T02:40:43.576Z,75.46
2019-03-10T02:41:42.287Z,75.29
2019-03-10T02:42:42.377Z,76.08
2019-03-10T02:43:42.274Z,75.67
2019-03-10T02:44:42.333Z,76.08
2019-03-10T02:45:42.279Z,76.39
2019-03-10T02:46:42.344Z,76.70
2019-03-10T02:47:42.214Z,76.49
2019-03-10T02:48:42.317Z,76.39
2019-03-10T02:49:42.224Z,76.53
2019-03-10T02:50:42.260Z,76.70
2019-03-10T02:51:42.198Z,76.84
2019-03-10T02:52:42.243Z,76.53
2019-03-10T02:53:42.153Z,76.39
2019-03-10T02:54:42.256Z,76.94
2019-03-10T02:55:42.160Z,76.53
2019-03-10T02:56:42.197Z,76.42
2019-03-10T02:57:42.141Z,76.70
2019-03-10T02:58:42.178Z,77.25
2019-03-10T02:59:42.118Z,77.25
2019-03-10T03:00:42.193Z,76.94
2019-03-10T03:01:42.063Z,77.97
2019-03-10T03:02:42.108Z,78.28
2019-03-10T03:03:42.047Z,77.66
2019-03-10T03:04:43.182Z,77.87
2019-03-10T03:05:42.033Z,77.97
2019-03-10T03:06:42.044Z,77.76
2019-03-10T03:07:41.998Z,78.18
2019-03-10T03:08:42.049Z,78.80
2019-03-10T03:09:41.978Z,78.66
2019-03-10T03:10:42.088Z,79.11
2019-03-10T03:11:41.961Z,79.11
2019-03-10T03:12:41.975Z,79.83
2019-03-10T03:13:41.943Z,79.72
2019-03-10T03:14:41.992Z,80.44
2019-03-10T03:15:41.985Z,80.72
2019-03-10T03:16:42.037Z,80.55
2019-03-10T03:17:41.888Z,80.14
2019-03-10T03:18:41.913Z,81.07
2019-03-10T03:19:41.873Z,81.17
2019-03-10T03:20:41.934Z,81.48
2019-03-10T03:21:43.686Z,81.79
2019-03-10T03:22:41.940Z,81.89
2019-03-10T03:23:41.824Z,81.99
2019-03-10T03:24:41.854Z,81.89
2019-03-10T03:25:41.802Z,82.10
2019-03-10T03:26:41.916Z,82.30
2019-03-10T03:27:41.777Z,82.55
2019-03-10T03:28:41.900Z,82.51
2019-03-10T03:29:41.752Z,82.40
2019-03-10T03:30:41.857Z,82.51
2019-03-10T03:31:41.773Z,82.40
2019-03-10T03:32:41.806Z,82.51
2019-03-10T03:33:41.744Z,83.54
2019-03-10T03:34:41.821Z,83.64
2019-03-10T03:35:41.724Z,83.13
2019-03-10T03:36:41.761Z,82.71
2019-03-10T03:37:41.672Z,83.85
2019-03-10T03:38:41.743Z,83.44
2019-03-10T03:39:41.649Z,83.78
2019-03-10T03:40:41.765Z,83.99
2019-03-10T03:41:41.649Z,83.75
2019-03-10T03:43:42.739Z,84.36
2019-03-10T03:44:41.693Z,85.71
2019-03-10T03:45:41.583Z,84.92
2019-03-10T03:46:41.732Z,85.13
2019-03-10T03:47:41.570Z,85.33
2019-03-10T03:48:41.614Z,86.36
2019-03-10T03:49:41.539Z,87.19
2019-03-10T03:50:41.626Z,86.98
2019-03-10T03:51:41.542Z,86.68
2019-03-10T03:52:41.536Z,86.98
2019-03-10T03:53:41.511Z,87.40
2019-03-10T03:54:41.549Z,87.19
2019-03-10T03:55:41.480Z,87.40
2019-03-10T03:56:41.601Z,86.98
2019-03-10T03:57:41.453Z,87.08
2019-03-10T03:58:41.475Z,87.40
2019-03-10T03:59:41.501Z,87.29
2019-03-10T04:00:41.498Z,86.98
2019-03-10T04:01:41.415Z,86.98
2019-03-10T04:02:41.560Z,85.64
2019-03-10T04:03:41.388Z,85.64
2019-03-10T04:04:41.419Z,86.05
2019-03-10T04:05:41.380Z,87.13
2019-03-10T04:06:41.429Z,87.02
2019-03-10T04:07:41.365Z,87.74
2019-03-10T04:08:41.450Z,87.81
2019-03-10T04:09:41.327Z,89.09
2019-03-10T04:10:41.356Z,89.29
2019-03-10T04:11:41.309Z,88.26
2019-03-10T04:12:41.400Z,89.23
2019-03-10T04:13:41.284Z,89.50
2019-03-10T04:14:41.384Z,88.89
2019-03-10T04:15:41.258Z,88.78
2019-03-10T04:16:41.403Z,88.68
2019-03-10T04:17:41.292Z,89.19
2019-03-10T04:18:41.308Z,89.34
2019-03-10T04:19:41.240Z,89.86
2019-03-10T04:20:41.339Z,89.65
2019-03-10T04:21:41.221Z,90.06
2019-03-10T04:22:41.307Z,90.58
2019-03-10T04:23:41.204Z,90.06
2019-03-10T04:24:41.287Z,90.89
2019-03-10T04:25:41.158Z,91.50
2019-03-10T04:26:41.160Z,91.30
2019-03-10T04:27:41.144Z,92.13
2019-03-10T04:28:41.226Z,91.71
2019-03-10T04:29:41.163Z,91.61
2019-03-10T04:30:41.186Z,92.13
2019-03-10T04:31:41.092Z,92.44
2019-03-10T04:32:41.141Z,92.54
2019-03-10T04:33:41.066Z,92.64
2019-03-10T04:34:41.114Z,92.44
2019-03-10T04:35:41.035Z,92.54
2019-03-10T04:36:41.141Z,93.05
2019-03-10T04:37:41.016Z,92.95
2019-03-10T04:38:41.084Z,92.85
2019-03-10T04:39:40.995Z,93.26
2019-03-10T04:40:41.058Z,93.47
2019-03-10T04:41:40.969Z,93.72
2019-03-10T04:42:41.085Z,93.93
2019-03-10T04:43:40.982Z,93.57
2019-03-10T04:44:41.057Z,94.03
2019-03-10T04:45:40.931Z,93.05
2019-03-10T04:46:41.009Z,93.10
2019-03-10T04:47:40.914Z,93.20
2019-03-10T04:48:41.034Z,93.82
2019-03-10T04:49:40.898Z,93.62
2019-03-10T04:50:40.931Z,93.93
2019-03-10T04:51:40.882Z,94.44
2019-03-10T04:52:40.944Z,93.82
2019-03-10T04:53:40.876Z,94.44
2019-03-10T04:54:40.945Z,94.23
2019-03-10T04:55:40.860Z,94.03
2019-03-10T04:56:40.859Z,93.93
2019-03-10T04:57:40.801Z,94.44
2019-03-10T04:58:40.916Z,94.54
2019-03-10T04:59:40.770Z,94.13
2019-03-10T05:00:40.892Z,94.13
2019-03-10T05:01:40.800Z,94.34
2019-03-10T05:02:40.802Z,94.23
2019-03-10T05:03:40.754Z,94.13
2019-03-10T05:04:40.949Z,93.97
2019-03-10T05:05:40.741Z,93.82
2019-03-10T05:06:40.825Z,94.59
2019-03-10T05:07:40.728Z,94.44
2019-03-10T05:08:40.744Z,94.13
2019-03-10T05:09:40.690Z,94.44
2019-03-10T05:10:40.749Z,94.18
2019-03-10T05:11:40.678Z,94.28
2019-03-10T05:12:40.701Z,94.59
2019-03-10T05:13:40.633Z,94.90
2019-03-10T05:14:40.702Z,94.79
2019-03-10T05:15:40.597Z,94.90
2019-03-10T05:16:40.700Z,95.62
2019-03-10T05:17:40.577Z,95.52
2019-03-10T05:18:40.620Z,95.10
2019-03-10T05:19:40.602Z,95.10
2019-03-10T05:20:40.613Z,95.42
2019-03-10T05:21:40.543Z,95.00
2019-03-10T05:22:40.630Z,95.00
2019-03-10T05:23:40.547Z,95.31
2019-03-10T05:24:40.577Z,95.10
2019-03-10T05:25:40.493Z,95.42
2019-03-10T05:26:40.556Z,95.52
2019-03-10T05:27:40.503Z,95.10
2019-03-10T05:28:40.570Z,95.52
2019-03-10T05:29:40.484Z,95.73
2019-03-10T05:30:40.486Z,95.52
2019-03-10T05:31:40.429Z,95.10
2019-03-10T05:32:40.491Z,94.69
2019-03-10T05:33:40.403Z,94.48
2019-03-10T05:34:40.502Z,94.48
2019-03-10T05:35:40.407Z,95.10
2019-03-10T05:36:40.418Z,95.42
2019-03-10T05:37:40.365Z,95.00
2019-03-10T05:38:40.426Z,95.21
2019-03-10T05:39:40.335Z,95.31
2019-03-10T05:40:40.438Z,95.21
2019-03-10T05:41:40.314Z,95.00
2019-03-10T05:42:40.355Z,95.10
2019-03-10T05:43:40.294Z,95.00
2019-03-10T05:44:40.375Z,95.21
2019-03-10T05:45:40.327Z,95.21
2019-03-10T05:46:40.400Z,95.52
2019-03-10T05:47:40.245Z,95.77
2019-03-10T05:48:40.293Z,95.31
2019-03-10T05:49:40.225Z,95.31
2019-03-10T05:50:40.315Z,95.15
2019-03-10T05:51:40.231Z,95.42
2019-03-10T05:52:40.242Z,95.21
2019-03-10T05:53:40.196Z,95.77
2019-03-10T05:54:40.247Z,96.08
2019-03-10T05:55:40.167Z,95.98
2019-03-10T05:56:40.302Z,95.94
2019-03-10T05:57:40.136Z,96.24
2019-03-10T05:58:40.193Z,96.14
2019-03-10T05:59:40.123Z,96.03
2019-03-10T06:00:42.884Z,95.98
2019-03-10T06:01:40.125Z,96.03
2019-03-10T06:02:40.195Z,97.42
2019-03-10T06:03:40.075Z,97.11
2019-03-10T06:04:40.112Z,97.53
2019-03-10T06:05:40.050Z,97.11
2019-03-10T06:06:40.166Z,97.22
2019-03-10T06:07:40.034Z,97.01
2019-03-10T06:08:40.144Z,97.01
2019-03-10T06:09:40.008Z,97.42
2019-03-10T06:10:40.044Z,97.74
2019-03-10T06:11:40.034Z,97.11
2019-03-10T06:12:40.062Z,97.69
2019-03-10T06:13:39.978Z,97.32
2019-03-10T06:14:40.070Z,97.32
2019-03-10T06:15:39.941Z,97.42
2019-03-10T06:16:40.004Z,97.53
2019-03-10T06:17:39.917Z,97.84
2019-03-10T06:18:39.998Z,97.84
2019-03-10T06:19:39.889Z,98.05
2019-03-10T06:20:40.016Z,97.94
2019-03-10T06:21:39.873Z,97.84
2019-03-10T06:22:39.946Z,98.77
2019-03-10T06:23:39.851Z,98.15
2019-03-10T06:24:39.953Z,98.56
2019-03-10T06:25:39.850Z,98.25
2019-03-10T06:26:39.856Z,98.56
2019-03-10T06:27:39.872Z,98.25
2019-03-10T06:28:39.866Z,98.50
2019-03-10T06:29:39.784Z,98.46
2019-03-10T06:30:39.880Z,98.35
2019-03-10T06:31:39.780Z,98.40
2019-03-10T06:32:39.876Z,98.87
2019-03-10T06:33:39.751Z,98.66
2019-03-10T06:34:39.798Z,98.46
2019-03-10T06:35:39.713Z,98.97
2019-03-10T06:36:39.811Z,99.18
2019-03-10T06:37:39.727Z,99.18
2019-03-10T06:38:39.727Z,98.87
2019-03-10T06:39:39.682Z,98.77
2019-03-10T06:40:39.747Z,98.77
2019-03-10T06:41:39.648Z,98.87
2019-03-10T06:42:39.783Z,98.66
2019-03-10T06:43:39.666Z,98.87
2019-03-10T06:44:39.687Z,98.56
2019-03-10T06:45:39.616Z,98.97
2019-03-10T06:46:39.722Z,98.97
2019-03-10T06:47:39.618Z,99.49
2019-03-10T06:48:39.722Z,99.29
2019-03-10T06:49:39.575Z,99.08
2019-03-10T06:50:39.612Z,99.18
2019-03-10T06:51:39.545Z,99.29
2019-03-10T06:52:39.619Z,98.87
2019-03-10T06:53:39.546Z,99.08
2019-03-10T06:54:39.632Z,99.18
2019-03-10T06:55:39.500Z,98.77
2019-03-10T06:56:39.538Z,98.56
2019-03-10T06:57:39.481Z,98.66
2019-03-10T06:58:39.592Z,98.87
2019-03-10T06:59:39.459Z,99.18
2019-03-10T07:00:39.577Z,99.02
2019-03-10T07:01:39.441Z,99.18
2019-03-10T07:02:39.488Z,99.70
2019-03-10T07:03:39.459Z,99.60
2019-03-10T07:04:39.544Z,99.49
2019-03-10T07:05:39.381Z,99.49
2019-03-10T07:06:39.411Z,99.49
2019-03-10T07:07:39.378Z,99.08
2019-03-10T07:08:39.531Z,99.18
2019-03-10T07:09:39.342Z,99.18
2019-03-10T07:10:39.429Z,99.49
2019-03-10T07:11:39.321Z,99.39
2019-03-10T07:12:39.341Z,99.18
2019-03-10T07:13:39.788Z,99.60
2019-03-10T07:14:39.365Z,99.80
2019-03-10T07:15:39.281Z,99.99
2019-03-10T07:16:39.371Z,99.99
2019-03-10T07:17:39.299Z,99.70
2019-03-10T07:18:39.343Z,99.91
2019-03-10T07:19:39.257Z,99.70
2019-03-10T07:20:39.322Z,99.80
2019-03-10T07:21:39.215Z,99.70
2019-03-10T07:22:39.333Z,99.80
2019-03-10T07:23:39.185Z,99.70
2019-03-10T07:24:39.277Z,99.14
2019-03-10T07:25:39.171Z,98.35
2019-03-10T07:26:39.252Z,98.15
2019-03-10T07:27:39.154Z,97.53
2019-03-10T07:28:39.259Z,97.53
2019-03-10T07:29:39.147Z,97.42
2019-03-10T07:30:39.487Z,97.22
2019-03-10T07:31:39.101Z,96.70
2019-03-10T07:32:39.176Z,95.98
2019-03-10T07:33:39.084Z,95.15
2019-03-10T07:34:39.116Z,94.53
2019-03-10T07:35:39.061Z,94.43
2019-03-10T07:36:39.094Z,94.32
2019-03-10T07:37:39.028Z,94.73
2019-03-10T07:38:39.113Z,93.91
2019-03-10T07:39:39.060Z,93.66
2019-03-10T07:40:39.026Z,94.28
2019-03-10T07:41:39.012Z,94.84
2019-03-10T07:42:39.048Z,94.79
2019-03-10T07:43:38.973Z,94.73
2019-03-10T07:44:39.080Z,94.94
2019-03-10T07:45:38.975Z,94.90
2019-03-10T07:46:38.978Z,95.52
2019-03-10T07:47:38.919Z,94.84
2019-03-10T07:48:38.979Z,95.04
2019-03-10T07:49:38.903Z,94.59
2019-03-10T07:50:38.993Z,95.25
2019-03-10T07:51:38.927Z,95.42
2019-03-10T07:52:38.903Z,95.31
2019-03-10T07:53:38.949Z,95.87
2019-03-10T07:55:40.011Z,96.97
2019-03-10T07:56:38.943Z,96.91
2019-03-10T07:57:38.823Z,96.33
2019-03-10T07:58:38.845Z,96.70
2019-03-10T07:59:38.791Z,97.16
2019-03-10T08:00:38.882Z,97.01
2019-03-10T08:01:38.769Z,97.32
2019-03-10T08:02:38.873Z,97.22
2019-03-10T08:03:38.772Z,96.91
2019-03-10T08:04:38.777Z,96.08
2019-03-10T08:05:38.775Z,96.23
2019-03-10T08:06:38.847Z,95.36
2019-03-10T08:07:38.711Z,94.84
2019-03-10T08:09:39.821Z,96.08
2019-03-10T08:10:38.770Z,96.19
2019-03-10T08:11:38.823Z,95.87
2019-03-10T08:12:38.756Z,95.25
2019-03-10T08:13:38.636Z,95.04
2019-03-10T08:14:38.745Z,94.94
2019-03-10T08:15:38.624Z,94.73
2019-03-10T08:16:38.689Z,95.46
2019-03-10T08:17:38.593Z,96.19
2019-03-10T08:18:38.677Z,96.19
2019-03-10T08:19:38.585Z,96.39
2019-03-10T08:20:38.598Z,96.55
2019-03-10T08:21:38.614Z,96.34
2019-03-10T08:22:38.598Z,96.34
2019-03-10T08:23:38.533Z,96.29
2019-03-10T08:24:38.614Z,96.19
2019-03-10T08:25:38.507Z,96.14
2019-03-10T08:26:38.562Z,95.73
2019-03-10T08:27:38.519Z,96.29
2019-03-10T08:28:38.542Z,95.31
2019-03-10T08:29:38.461Z,95.15
2019-03-10T08:30:38.556Z,96.14
2019-03-10T08:31:38.473Z,96.03
2019-03-10T08:32:38.497Z,95.83
2019-03-10T08:33:38.413Z,96.24
2019-03-10T08:34:38.479Z,95.83
2019-03-10T08:35:38.392Z,95.62
2019-03-10T08:36:38.502Z,95.31
2019-03-10T08:37:38.394Z,96.03
2019-03-10T08:38:38.414Z,95.21
2019-03-10T08:39:38.348Z,95.21
2019-03-10T08:40:38.415Z,95.31
2019-03-10T08:41:38.326Z,95.62
2019-03-10T08:42:38.466Z,95.10
2019-03-10T08:43:38.366Z,94.79
2019-03-10T08:44:38.354Z,94.79
2019-03-10T08:45:38.292Z,95.10
2019-03-10T08:46:38.364Z,95.10
2019-03-10T08:47:38.394Z,94.75
2019-03-10T08:48:38.378Z,95.48
2019-03-10T08:49:44.974Z,95.17
2019-03-10T08:51:39.348Z,95.99
2019-03-10T08:52:38.328Z,94.96
2019-03-10T08:53:38.216Z,95.17
2019-03-10T08:54:38.218Z,94.75
2019-03-10T08:55:38.171Z,94.85
2019-03-10T08:56:38.266Z,94.65
2019-03-10T08:57:38.154Z,95.42
2019-03-10T08:58:38.286Z,96.03
2019-03-10T08:59:38.263Z,96.34
2019-03-10T09:00:38.150Z,95.48
2019-03-10T09:01:38.281Z,95.17
2019-03-10T09:02:38.165Z,95.17
2019-03-10T09:03:38.114Z,95.95
2019-03-10T09:04:38.173Z,96.15
2019-03-10T09:05:38.075Z,95.02
2019-03-10T09:06:38.098Z,94.96
2019-03-10T09:07:38.037Z,95.02
2019-03-10T09:08:38.153Z,95.43
2019-03-10T09:09:38.018Z,95.12
2019-03-10T09:10:38.110Z,95.32
2019-03-10T09:11:38.001Z,95.37
2019-03-10T09:12:38.027Z,94.44
2019-03-10T09:13:38.018Z,94.34
2019-03-10T09:14:38.046Z,94.54
2019-03-10T09:15:37.951Z,94.44
2019-03-10T09:16:38.058Z,95.06
2019-03-10T09:17:37.943Z,95.27
2019-03-10T09:18:38.003Z,95.37
2019-03-10T09:19:37.934Z,95.48
2019-03-10T09:21:39.836Z,95.78
2019-03-10T09:22:38.006Z,96.09
2019-03-10T09:23:37.870Z,95.99
2019-03-10T09:24:37.948Z,95.99
2019-03-10T09:25:37.842Z,95.99
2019-03-10T09:26:38.027Z,96.30
2019-03-10T09:27:37.836Z,96.20
2019-03-10T09:28:38.041Z,96.05
2019-03-10T09:29:37.823Z,96.09
2019-03-10T09:31:38.957Z,95.78
2019-03-10T09:32:38.172Z,95.27
2019-03-10T09:33:37.768Z,95.17
2019-03-10T09:34:38.427Z,94.75
2019-03-10T09:35:37.777Z,95.95
2019-03-10T09:37:38.868Z,94.44
2019-03-10T09:39:38.871Z,95.27
2019-03-10T09:40:38.772Z,94.96
2019-03-10T09:41:37.675Z,96.09
2019-03-10T09:43:38.815Z,96.05
2019-03-10T09:44:38.913Z,95.84
2019-03-10T09:45:40.912Z,96.05
2019-03-10T09:47:38.752Z,95.64
2019-03-10T09:49:38.741Z,96.26
2019-03-10T09:50:39.246Z,95.95
2019-03-10T09:51:37.580Z,96.05
2019-03-10T09:53:38.800Z,96.05
2019-03-10T09:54:39.757Z,95.84
2019-03-10T09:55:37.543Z,94.71
2019-03-10T09:56:40.247Z,95.84
2019-03-10T09:57:37.488Z,95.28
2019-03-10T09:59:38.606Z,95.18
2019-03-10T10:00:41.048Z,95.03
2019-03-10T10:01:40.010Z,95.07
2019-03-10T10:02:37.450Z,95.28
2019-03-10T10:04:38.561Z,94.52
2019-03-10T10:06:37.413Z,94.62
2019-03-10T10:08:38.523Z,94.17
2019-03-10T10:10:38.536Z,93.13
2019-03-10T10:11:41.235Z,93.38
2019-03-10T10:12:37.335Z,93.24
2019-03-10T10:13:41.036Z,94.27
2019-03-10T10:14:37.635Z,93.81
2019-03-10T10:16:38.494Z,93.09
2019-03-10T10:18:38.389Z,92.93
2019-03-10T10:20:38.399Z,93.44
2019-03-10T10:21:40.594Z,93.54
2019-03-10T10:22:37.244Z,94.10
2019-03-10T10:24:38.330Z,94.82
2019-03-10T10:26:38.395Z,94.87
2019-03-10T10:27:41.157Z,94.56
2019-03-10T10:28:37.289Z,95.07
2019-03-10T10:29:41.159Z,94.56
2019-03-10T10:30:37.290Z,94.77
2019-03-10T10:32:37.158Z,94.87
2019-03-10T10:37:07.778Z,94.78
2019-03-10T10:38:17.970Z,94.57
2019-03-10T10:39:08.743Z,94.57
2019-03-10T10:40:07.746Z,94.27
2019-03-10T10:41:08.481Z,93.65
2019-03-10T10:42:07.714Z,93.13
2019-03-10T10:43:07.591Z,93.24
2019-03-10T10:44:07.640Z,93.60
2019-03-10T10:45:07.648Z,93.60
2019-03-10T10:46:07.537Z,93.71
2019-03-10T10:47:07.584Z,94.23
2019-03-10T10:48:07.994Z,94.74
2019-03-10T10:49:07.578Z,93.77
2019-03-10T10:50:07.471Z,93.35
2019-03-10T10:51:07.596Z,93.35
2019-03-10T10:52:07.457Z,93.31
2019-03-10T10:53:07.528Z,92.49
2019-03-10T10:54:07.432Z,92.69
2019-03-10T10:55:07.536Z,91.87
2019-03-10T10:56:07.427Z,92.49
2019-03-10T10:57:07.443Z,92.08
2019-03-10T10:58:07.420Z,92.18
2019-03-10T10:59:07.446Z,92.49
2019-03-10T11:00:07.371Z,92.63
2019-03-10T11:01:09.869Z,93.05
2019-03-10T11:02:07.337Z,92.63
2019-03-10T11:03:07.605Z,93.35
2019-03-10T11:04:07.302Z,93.66
2019-03-10T11:05:07.389Z,93.46
2019-03-10T11:06:07.309Z,93.77
2019-03-10T11:07:07.395Z,93.77
2019-03-10T11:08:07.304Z,93.98
2019-03-10T11:09:07.317Z,94.59
2019-03-10T11:10:07.257Z,94.59
2019-03-10T11:11:07.318Z,93.56
2019-03-10T11:12:07.222Z,94.28
2019-03-10T11:13:07.466Z,94.74
2019-03-10T11:14:07.192Z,94.90
2019-03-10T11:15:07.253Z,94.80
2019-03-10T11:16:07.190Z,94.08
2019-03-10T11:17:07.255Z,94.70
2019-03-10T11:18:09.734Z,94.76
2019-03-10T11:19:07.313Z,94.13
2019-03-10T11:20:07.137Z,94.24
2019-03-10T11:21:07.186Z,94.24
2019-03-10T11:22:07.108Z,94.20
2019-03-10T11:23:07.373Z,93.48
2019-03-10T11:24:07.124Z,93.37
2019-03-10T11:25:07.264Z,93.16
2019-03-10T11:26:08.528Z,92.61
2019-03-10T11:27:07.122Z,93.64
2019-03-10T11:28:07.044Z,93.84
2019-03-10T11:29:07.169Z,94.01
2019-03-10T11:30:07.049Z,94.42
2019-03-10T11:31:07.053Z,93.70
2019-03-10T11:32:07.004Z,94.62
2019-03-10T11:33:07.071Z,94.01
2019-03-10T11:34:07.012Z,93.80
2019-03-10T11:35:07.074Z,94.01
2019-03-10T11:36:06.973Z,94.01
2019-03-10T11:37:06.991Z,93.70
2019-03-10T11:38:06.942Z,94.17
2019-03-10T11:39:07.032Z,93.24
2019-03-10T11:40:06.906Z,93.14
2019-03-10T11:41:07.015Z,93.10
2019-03-10T11:42:06.883Z,92.33
2019-03-10T11:43:06.925Z,91.93
2019-03-10T11:44:06.897Z,91.99
2019-03-10T11:45:07.000Z,91.16
2019-03-10T11:46:06.844Z,90.20
2019-03-10T11:47:06.956Z,91.53
2019-03-10T11:48:06.837Z,91.80
2019-03-10T11:49:06.877Z,91.38
2019-03-10T11:50:06.835Z,91.90
2019-03-10T11:51:06.914Z,92.00
2019-03-10T11:52:06.771Z,91.59
2019-03-10T11:53:06.791Z,91.03
2019-03-10T11:54:06.760Z,91.08
2019-03-10T11:55:06.906Z,91.08
2019-03-10T11:56:06.740Z,91.38
2019-03-10T11:57:06.832Z,90.97
2019-03-10T11:58:06.726Z,90.87
2019-03-10T11:59:06.763Z,90.93
2019-03-10T12:00:06.730Z,91.09
2019-03-10T12:01:06.756Z,90.84
2019-03-10T12:02:15.655Z,91.05
2019-03-10T12:03:07.656Z,90.39
2019-03-10T12:04:06.767Z,89.23
2019-03-10T12:05:06.685Z,90.15
2019-03-10T12:06:06.674Z,88.92
2019-03-10T12:07:06.607Z,88.88
2019-03-10T12:08:06.701Z,88.12
2019-03-10T12:09:06.648Z,88.12
2019-03-10T12:10:06.738Z,86.49
2019-03-10T12:11:06.561Z,86.35
2019-03-10T12:12:06.621Z,85.06
2019-03-10T12:13:06.548Z,85.83
2019-03-10T12:14:06.655Z,85.47
2019-03-10T12:15:06.552Z,86.96
2019-03-10T12:16:06.554Z,86.18
2019-03-10T12:17:06.499Z,85.36
2019-03-10T12:18:06.557Z,86.49
2019-03-10T12:19:06.475Z,87.00
2019-03-10T12:20:06.596Z,88.29
2019-03-10T12:21:06.462Z,87.32
2019-03-10T12:22:06.518Z,87.90
2019-03-10T12:23:06.430Z,85.71
2019-03-10T12:24:06.501Z,86.06
2019-03-10T12:25:06.414Z,85.24
2019-03-10T12:26:06.536Z,85.86
2019-03-10T12:27:06.393Z,86.06
2019-03-10T12:28:06.422Z,85.65
2019-03-10T12:29:06.364Z,84.63
2019-03-10T12:30:06.429Z,83.92
2019-03-10T12:31:06.353Z,82.08
2019-03-10T12:32:06.480Z,81.53
2019-03-10T12:33:06.347Z,81.84
2019-03-10T12:34:06.359Z,80.00
2019-03-10T12:35:06.310Z,79.49
2019-03-10T12:36:06.423Z,81.43
2019-03-10T12:37:06.278Z,80.61
2019-03-10T12:39:07.396Z,80.89
2019-03-10T12:40:06.301Z,80.38
2019-03-10T12:41:06.285Z,80.62
2019-03-10T12:42:06.321Z,80.73
2019-03-10T12:43:06.257Z,80.01
2019-03-10T12:44:06.329Z,80.93
2019-03-10T12:45:06.190Z,81.38
2019-03-10T12:46:06.234Z,80.46
2019-03-10T12:47:06.201Z,80.76
2019-03-10T12:48:06.287Z,79.94
2019-03-10T12:49:06.169Z,81.17
2019-03-10T12:50:06.207Z,81.07
2019-03-10T12:51:06.138Z,81.17
2019-03-10T12:52:06.205Z,81.48
2019-03-10T12:53:06.100Z,81.99
2019-03-10T12:54:06.188Z,81.68
2019-03-10T12:55:06.086Z,81.54
2019-03-10T12:56:06.495Z,81.95
2019-03-10T12:57:06.085Z,82.15
2019-03-10T12:58:06.119Z,80.89
2019-03-10T12:59:06.259Z,80.41
2019-03-10T13:00:06.141Z,80.00
2019-03-10T13:01:06.868Z,79.28
2019-03-10T13:02:06.071Z,79.49
2019-03-10T13:03:05.988Z,80.10
2019-03-10T13:04:06.057Z,80.51
2019-03-10T13:05:05.961Z,80.44
2019-03-10T13:06:06.190Z,81.46
2019-03-10T13:07:05.948Z,80.89
2019-03-10T13:08:06.251Z,79.63
2019-03-10T13:09:05.916Z,80.44
2019-03-10T13:10:06.021Z,79.93
2019-03-10T13:11:05.899Z,80.65
2019-03-10T13:12:06.032Z,80.65
2019-03-10T13:13:05.933Z,80.48
2019-03-10T13:14:05.926Z,80.42
2019-03-10T13:15:05.867Z,81.24
2019-03-10T13:16:06.046Z,80.83
2019-03-10T13:17:05.835Z,81.74
2019-03-10T13:18:06.492Z,81.74
2019-03-10T13:19:05.809Z,81.58
2019-03-10T13:20:05.965Z,81.74